Time;durP1;ratioP1;P1;durP2;ratioP2;P2;SDS_P1;SDS_P2;PMS_P1;PMS_P2;Temp;Humidity;BMP_temperature;BMP_pressure;BME280_temperature;BME280_humidity;BME280_pressure;Samples;Min_cycle;Max_cycle;Signal;HPM_P1;HPM_P2
2021/01/05 00:01:07;;;;;;;23.07;11.23;;;1.20;99.90;;;2.23;100.00;100170.31;4724510;30;20213;-61
2021/01/05 00:03:35;;;;;;;22.87;12.40;;;1.20;99.90;;;2.16;100.00;100168.50;4724920;30;20224;-61
2021/01/05 00:06:02;;;;;;;27.13;13.33;;;1.30;99.90;;;2.22;100.00;100165.16;4725843;30;20626;-61
2021/01/05 00:08:30;;;;;;;30.77;13.27;;;1.30;99.90;;;2.28;100.00;100172.47;4724931;30;20227;-61
2021/01/05 00:10:58;;;;;;;22.57;12.13;;;1.30;99.90;;;2.11;100.00;100174.31;4724889;30;20213;-61
2021/01/05 00:13:25;;;;;;;24.67;12.30;;;1.30;99.90;;;2.00;100.00;100171.97;4723713;30;20241;-60
2021/01/05 00:15:53;;;;;;;27.47;12.50;;;1.30;99.90;;;2.24;100.00;100163.16;4724867;30;20296;-61
2021/01/05 00:18:20;;;;;;;30.57;12.87;;;1.30;99.90;;;2.05;100.00;100166.16;4725920;30;20317;-64
2021/01/05 00:20:47;;;;;;;24.87;12.63;;;1.30;99.90;;;2.17;100.00;100165.66;4724405;30;20202;-63
2021/01/05 00:23:15;;;;;;;24.23;12.37;;;1.30;99.90;;;2.03;100.00;100158.34;4734026;30;20304;-64
2021/01/05 00:25:43;;;;;;;24.10;12.10;;;1.30;99.90;;;1.98;100.00;100158.00;4733649;30;20696;-63
2021/01/05 00:28:12;;;;;;;26.57;12.43;;;1.30;99.90;;;2.19;100.00;100155.72;4733731;30;20216;-64
2021/01/05 00:30:40;;;;;;;24.03;12.53;;;1.30;99.90;;;2.12;100.00;100160.03;4733710;30;20248;-65
2021/01/05 00:33:08;;;;;;;25.93;12.47;;;1.30;99.90;;;2.18;100.00;100163.84;4733629;30;20825;-63
2021/01/05 00:35:39;;;;;;;27.33;13.57;;;1.30;99.90;;;1.96;100.00;100164.50;4729352;30;20235;-64
2021/01/05 00:38:08;;;;;;;25.73;13.37;;;1.20;99.90;;;2.31;100.00;100172.16;4724035;30;20213;-63
2021/01/05 00:40:37;;;;;;;23.60;12.87;;;1.30;99.90;;;2.33;100.00;100168.31;4723787;30;20240;-63
2021/01/05 00:43:05;;;;;;;24.20;12.50;;;1.30;99.90;;;2.15;100.00;100174.78;4725040;30;20748;-64
2021/01/05 00:45:36;;;;;;;26.87;13.17;;;1.30;99.90;;;2.15;100.00;100162.34;4724648;30;20197;-60
2021/01/05 00:48:06;;;;;;;27.90;13.80;;;1.30;99.90;;;2.32;100.00;100163.16;4723644;30;20280;-61
2021/01/05 00:50:34;;;;;;;25.10;13.07;;;1.30;99.90;;;2.12;100.00;100170.66;4724125;30;20356;-62
2021/01/05 00:53:02;;;;;;;25.23;13.47;;;1.50;99.90;;;2.27;100.00;100168.16;4725490;30;20209;-60
2021/01/05 00:55:29;;;;;;;25.53;13.33;;;1.40;99.90;;;2.35;100.00;100168.97;4724168;30;20206;-61
2021/01/05 00:57:56;;;;;;;20.10;12.10;;;1.40;99.90;;;2.20;100.00;100173.31;4723250;30;20754;-61
2021/01/05 01:00:28;;;;;;;22.60;12.97;;;1.40;99.90;;;2.25;100.00;100175.47;4725195;30;20236;-61
2021/01/05 01:02:56;;;;;;;25.40;13.47;;;1.30;99.90;;;2.16;100.00;100181.78;4724938;30;20718;-61
2021/01/05 01:05:23;;;;;;;23.30;13.17;;;1.30;99.90;;;2.21;100.00;100182.09;4723449;30;20326;-61
2021/01/05 01:07:51;;;;;;;24.70;12.27;;;1.30;99.90;;;2.32;100.00;100179.09;4724574;30;20205;-61
2021/01/05 01:10:18;;;;;;;25.87;12.70;;;1.40;99.90;;;1.98;100.00;100181.09;4725100;30;20233;-63
2021/01/05 01:12:45;;;;;;;24.93;13.33;;;1.30;99.90;;;1.93;100.00;100181.56;4725720;30;20296;-64
2021/01/05 01:15:15;;;;;;;28.00;13.30;;;1.20;99.90;;;2.28;100.00;100189.22;4724019;30;20273;-64
2021/01/05 01:17:42;;;;;;;25.33;12.53;;;1.30;99.90;;;2.16;100.00;100192.41;4723711;30;20640;-64
2021/01/05 01:20:12;;;;;;;32.20;12.70;;;1.30;99.90;;;2.03;100.00;100187.56;4725852;30;20236;-63
2021/01/05 01:22:41;;;;;;;34.83;13.73;;;1.20;99.90;;;2.04;100.00;100183.09;4723366;30;20408;-63
2021/01/05 01:25:10;;;;;;;34.67;12.60;;;1.30;99.90;;;1.99;100.00;100188.91;4725383;30;20205;-63
2021/01/05 01:27:37;;;;;;;28.80;13.33;;;1.20;99.90;;;2.23;100.00;100190.75;4730216;30;20755;-64
2021/01/05 01:30:07;;;;;;;27.53;14.07;;;1.20;99.90;;;2.22;100.00;100186.41;4731303;30;20202;-63
2021/01/05 01:32:34;;;;;;;26.27;12.63;;;1.30;99.90;;;1.92;100.00;100195.88;4729635;30;20259;-63
2021/01/05 01:35:02;;;;;;;29.10;13.70;;;1.20;99.90;;;2.15;100.00;100196.88;4728779;30;20209;-64
2021/01/05 01:37:30;;;;;;;28.77;13.23;;;1.20;99.90;;;2.04;100.00;100197.22;4729935;30;20236;-64
2021/01/05 01:39:57;;;;;;;28.03;13.57;;;1.20;99.90;;;2.06;100.00;100187.22;4736274;30;20319;-64
2021/01/05 01:42:25;;;;;;;24.40;12.67;;;1.20;99.90;;;2.01;100.00;100192.19;4736225;30;20259;-64
2021/01/05 01:44:54;;;;;;;29.50;14.80;;;1.20;99.90;;;2.01;100.00;100188.75;4736396;30;20240;-64
2021/01/05 01:47:26;;;;;;;41.30;13.30;;;1.20;99.90;;;2.14;100.00;100189.06;4736409;30;20255;-64
2021/01/05 01:49:59;;;;;;;30.90;13.17;;;1.20;99.90;;;2.13;100.00;100182.91;4736141;30;20245;-63
2021/01/05 01:52:55;;;;;;;24.97;13.70;;;1.20;99.90;;;2.00;100.00;100179.09;4736542;30;20225;-64
2021/01/05 01:55:37;;;;;;;27.50;14.47;;;1.20;99.90;;;2.09;100.00;100181.59;4736186;30;20238;-63
2021/01/05 01:58:39;;;;;;;29.97;13.77;;;1.20;99.90;;;2.23;100.00;100178.28;4736195;30;20221;-64
2021/01/05 02:01:18;;;;;;;24.87;13.00;;;1.30;99.90;;;2.13;100.00;100180.25;4733821;30;20212;-64
2021/01/05 02:04:17;;;;;;;28.47;12.77;;;1.30;99.90;;;2.08;100.00;100179.13;4736395;30;20201;-64
2021/01/05 02:07:11;;;;;;;27.20;13.10;;;1.30;99.90;;;2.05;100.00;100184.75;4736071;30;20703;-63
2021/01/05 02:09:54;;;;;;;30.27;15.13;;;1.20;99.90;;;2.07;100.00;100178.28;4736280;30;20209;-63
2021/01/05 02:12:33;;;;;;;28.47;14.43;;;1.30;99.90;;;2.07;100.00;100177.44;4746582;30;20633;-64
2021/01/05 02:15:12;;;;;;;34.67;15.17;;;1.20;99.90;;;1.88;100.00;100175.09;4753609;30;20292;-64
2021/01/05 02:18:12;;;;;;;29.57;14.77;;;1.20;99.90;;;2.06;100.00;100167.81;4753690;30;20201;-63
2021/01/05 02:20:48;;;;;;;25.77;13.57;;;1.20;99.90;;;2.13;100.00;100169.63;4753671;30;20232;-63
2021/01/05 02:23:32;;;;;;;30.37;14.20;;;1.30;99.90;;;2.26;100.00;100166.50;4753659;30;20239;-64
2021/01/05 02:26:12;;;;;;;27.53;14.20;;;1.30;99.90;;;2.20;100.00;100167.97;4753544;30;20253;-63
2021/01/05 02:28:46;;;;;;;28.17;14.50;;;1.30;99.90;;;2.15;100.00;100162.34;4753422;30;20197;-63
2021/01/05 02:31:34;;;;;;;32.13;14.43;;;1.30;99.90;;;1.93;100.00;100173.59;4753200;30;20196;-64
2021/01/05 02:34:10;;;;;;;32.37;15.17;;;1.20;99.90;;;2.02;100.00;100163.81;4753482;30;20232;-64
2021/01/05 02:37:21;;;;;;;26.77;14.73;;;1.20;99.90;;;2.20;100.00;100151.19;4752732;30;20547;-64
2021/01/05 02:40:39;;;;;;;32.57;15.90;;;1.30;99.90;;;2.41;100.00;100140.91;4752963;30;20295;-64
2021/01/05 02:43:40;;;;;;;28.83;14.17;;;1.30;99.90;;;2.41;100.00;100144.41;4691720;30;20274;-64
2021/01/05 02:46:38;;;;;;;28.03;14.23;;;1.40;99.90;;;2.24;100.00;100147.22;4753152;30;20192;-63
2021/01/05 02:49:23;;;;;;;24.63;13.90;;;1.30;99.90;;;1.92;100.00;100148.06;4752851;30;20730;-63
2021/01/05 02:52:27;;;;;;;25.80;12.40;;;1.20;99.90;;;1.96;100.00;100152.03;4753200;30;20246;-63
2021/01/05 02:55:52;;;;;;;20.63;12.17;;;1.20;99.90;;;2.13;100.00;100144.91;4752750;30;20604;-64
2021/01/05 02:59:29;;;;;;;23.60;12.40;;;1.20;99.90;;;1.89;100.00;100148.41;4738339;30;20322;-63
2021/01/05 03:02:29;;;;;;;19.47;10.73;;;1.10;99.90;;;1.86;100.00;100146.03;4732528;30;20248;-64
2021/01/05 03:04:56;;;;;;;17.97;10.87;;;1.10;99.90;;;2.18;100.00;100147.91;4752686;30;20609;-64
2021/01/05 03:07:28;;;;;;;22.03;10.63;;;1.20;99.90;;;2.11;100.00;100161.03;4752742;30;20759;-64
2021/01/05 03:10:20;;;;;;;16.97;10.30;;;1.20;99.90;;;2.16;100.00;100145.41;4752797;30;20196;-63
2021/01/05 03:13:15;;;;;;;17.40;10.60;;;1.20;99.90;;;2.03;100.00;100150.38;4752568;30;20232;-64
2021/01/05 03:15:48;;;;;;;16.53;9.93;;;1.20;99.90;;;2.09;100.00;100152.38;4752730;30;20235;-63
2021/01/05 03:18:33;;;;;;;20.07;11.43;;;1.20;99.90;;;2.23;100.00;100146.38;4752967;30;20217;-63
2021/01/05 03:21:07;;;;;;;21.10;11.03;;;1.20;99.90;;;2.13;100.00;100153.69;4752479;30;20243;-64
2021/01/05 03:23:35;;;;;;;20.37;11.90;;;1.30;99.90;;;2.05;100.00;100152.88;4752643;30;20253;-64
2021/01/05 03:26:11;;;;;;;21.30;12.17;;;1.20;99.90;;;2.13;100.00;100151.03;4752194;30;20216;-64
2021/01/05 03:28:38;;;;;;;20.17;11.23;;;1.20;99.90;;;2.13;100.00;100144.91;4752611;30;20275;-63
2021/01/05 03:31:15;;;;;;;25.73;12.53;;;1.20;99.90;;;2.01;100.00;100147.06;4752506;30;20303;-64
2021/01/05 03:33:44;;;;;;;26.23;12.67;;;1.20;99.90;;;1.88;100.00;100146.72;4752390;30;20200;-63
2021/01/05 03:36:12;;;;;;;23.70;12.33;;;1.20;99.90;;;1.89;100.00;100145.75;4752654;30;20306;-64
2021/01/05 03:38:39;;;;;;;22.20;12.83;;;1.10;99.90;;;1.90;100.00;100138.59;4752307;30;20290;-63
2021/01/05 03:41:07;;;;;;;24.13;13.20;;;1.10;99.90;;;2.16;100.00;100134.78;4751609;30;20759;-63
2021/01/05 03:43:34;;;;;;;24.63;12.97;;;1.20;99.90;;;2.30;100.00;100139.41;4751962;30;20315;-63
2021/01/05 03:46:01;;;;;;;23.27;12.53;;;1.20;99.90;;;2.04;100.00;100144.09;4752297;30;20303;-63
2021/01/05 03:48:28;;;;;;;24.27;12.90;;;1.20;99.90;;;2.07;100.00;100141.09;4751476;30;20663;-64
2021/01/05 03:50:57;;;;;;;22.80;12.43;;;1.20;99.90;;;2.14;100.00;100144.75;4751906;30;20745;-64
2021/01/05 03:53:24;;;;;;;28.90;13.27;;;1.20;99.90;;;1.91;100.00;100146.38;4751826;30;20679;-63
2021/01/05 03:55:51;;;;;;;25.13;14.03;;;1.20;99.90;;;2.11;100.00;100141.59;4751634;30;20252;-60
2021/01/05 03:58:18;;;;;;;30.57;14.60;;;1.20;99.90;;;2.28;100.00;100138.75;4751644;30;20267;-61
2021/01/05 04:00:45;;;;;;;23.03;13.30;;;1.30;99.90;;;2.16;100.00;100134.78;4751856;30;20215;-61
2021/01/05 04:03:13;;;;;;;24.63;12.23;;;1.30;99.90;;;2.11;100.00;100131.81;4751962;30;20304;-60
2021/01/05 04:05:40;;;;;;;25.87;12.80;;;1.30;99.90;;;2.06;100.00;100138.59;4751651;30;20228;-61
2021/01/05 04:08:08;;;;;;;24.63;13.00;;;1.30;99.90;;;1.91;100.00;100138.41;4751549;30;20582;-60
2021/01/05 04:10:35;;;;;;;32.97;13.67;;;1.20;99.90;;;2.00;100.00;100134.78;4751118;30;20303;-61
2021/01/05 04:13:03;;;;;;;27.20;13.33;;;1.20;99.90;;;2.00;100.00;100134.78;4751688;30;20302;-60
2021/01/05 04:15:30;;;;;;;23.67;12.53;;;1.20;99.90;;;2.16;100.00;100139.28;4751345;30;20259;-62
2021/01/05 04:18:00;;;;;;;30.27;14.03;;;1.20;99.90;;;2.02;100.00;100135.44;4751365;30;20219;-60
2021/01/05 04:20:30;;;;;;;24.70;12.97;;;1.20;99.90;;;2.13;100.00;100145.72;4751662;30;20307;-61
2021/01/05 04:22:59;;;;;;;27.27;15.30;;;1.20;99.90;;;2.12;100.00;100143.25;4751889;30;20298;-61
2021/01/05 04:25:28;;;;;;;22.57;12.17;;;1.20;99.90;;;2.11;100.00;100139.78;4751183;30;20243;-61
2021/01/05 04:27:56;;;;;;;25.50;13.13;;;1.20;99.90;;;2.03;100.00;100158.34;4751314;30;20212;-61
2021/01/05 04:30:27;;;;;;;24.93;13.23;;;1.20;99.90;;;2.13;100.00;100145.72;4751105;30;20219;-60
2021/01/05 04:32:58;;;;;;;26.20;13.27;;;1.20;99.90;;;2.25;100.00;100136.44;4751574;30;20614;-61
2021/01/05 04:35:27;;;;;;;26.60;13.70;;;1.30;99.90;;;2.19;100.00;100144.25;4751175;30;20606;-60
2021/01/05 04:37:56;;;;;;;25.13;12.80;;;1.30;99.90;;;2.19;100.00;100139.78;4751453;30;20235;-60
2021/01/05 04:40:34;;;;;;;28.47;12.83;;;1.30;99.90;;;1.94;100.00;100146.06;4750952;30;20232;-60
2021/01/05 04:43:21;;;;;;;25.67;12.37;;;1.30;99.90;;;2.02;100.00;100139.91;4751452;30;20206;-62
2021/01/05 04:46:00;;;;;;;28.67;14.37;;;1.20;99.90;;;2.23;100.00;100141.06;4751142;30;20612;-61
2021/01/05 04:48:41;;;;;;;28.20;14.20;;;1.30;99.90;;;2.32;100.00;100140.09;4751354;30;20196;-60
2021/01/05 04:51:21;;;;;;;28.60;14.27;;;1.30;99.90;;;2.25;100.00;100143.59;4751356;30;20627;-60
2021/01/05 04:53:59;;;;;;;31.10;14.47;;;1.30;99.90;;;2.28;100.00;100138.75;4751259;30;20228;-61
2021/01/05 04:56:44;;;;;;;28.83;13.67;;;1.30;99.90;;;2.26;100.00;100142.59;4750788;30;20199;-61
2021/01/05 04:59:16;;;;;;;23.97;13.70;;;1.40;99.90;;;2.20;100.00;100140.56;4751004;30;20259;-60
2021/01/05 05:01:44;;;;;;;28.07;13.53;;;1.30;99.90;;;2.14;100.00;100149.22;4751079;30;20250;-61
2021/01/05 05:04:23;;;;;;;28.70;14.33;;;1.40;99.90;;;2.18;100.00;100150.56;4751170;30;20303;-61
2021/01/05 05:07:02;;;;;;;26.07;14.37;;;1.40;99.90;;;2.33;100.00;100147.03;4751262;30;20287;-61
2021/01/05 05:09:46;;;;;;;26.77;13.83;;;1.40;99.90;;;2.19;100.00;100145.09;4751733;30;20261;-61
2021/01/05 05:12:42;;;;;;;31.20;13.57;;;1.30;99.90;;;2.04;100.00;100141.44;4751924;30;20232;-61
2021/01/05 05:15:42;;;;;;;27.67;13.80;;;1.40;99.90;;;2.17;100.00;100143.56;4750805;30;20287;-60
2021/01/05 05:18:37;;;;;;;26.87;13.97;;;1.30;99.90;;;2.20;100.00;100145.88;4751259;30;20253;-61
2021/01/05 05:21:30;;;;;;;28.70;14.23;;;1.30;99.90;;;2.27;100.00;100145.06;4748767;30;20307;-61
2021/01/05 05:24:11;;;;;;;29.23;14.97;;;1.30;99.90;;;2.16;100.00;100149.91;4751041;30;20285;-61
2021/01/05 05:26:49;;;;;;;27.23;14.33;;;1.30;99.90;;;2.25;100.00;100148.91;4750753;30;20224;-61
2021/01/05 05:29:42;;;;;;;25.20;13.40;;;1.30;99.90;;;2.29;100.00;100147.56;4754178;30;20230;-61
2021/01/05 05:32:23;;;;;;;27.37;14.27;;;1.30;99.90;;;2.35;100.00;100145.06;4754864;30;20280;-61
2021/01/05 05:35:59;;;;;;;32.00;15.00;;;1.40;99.90;;;2.29;100.00;100148.41;4751196;30;20200;-60
2021/01/05 05:38:50;;;;;;;30.03;14.37;;;1.40;99.90;;;2.16;100.00;100153.38;4659223;30;20208;-61
2021/01/05 05:41:33;;;;;;;29.60;14.33;;;1.40;99.90;;;2.37;100.00;100153.69;4750487;30;20232;-61
2021/01/05 05:44:24;;;;;;;28.43;14.20;;;1.40;99.90;;;2.30;100.00;100150.03;4750690;30;20283;-61
2021/01/05 05:47:01;;;;;;;24.73;14.43;;;1.40;99.90;;;2.28;100.00;100153.88;4750830;30;20228;-61
2021/01/05 05:49:52;;;;;;;29.87;14.87;;;1.40;99.90;;;2.15;100.00;100154.38;4750592;30;20282;-60
2021/01/05 05:52:35;;;;;;;34.73;15.03;;;1.40;99.90;;;2.44;100.00;100154.69;4750710;30;20203;-61
2021/01/05 05:55:23;;;;;;;28.83;14.57;;;1.40;99.90;;;2.43;100.00;100152.22;4750746;30;20670;-61
2021/01/05 05:57:54;;;;;;;28.10;14.73;;;1.50;99.90;;;2.37;100.00;100151.03;4750837;30;20296;-60
2021/01/05 06:00:36;;;;;;;25.63;13.87;;;1.50;99.90;;;2.21;100.00;100147.56;4750652;30;20208;-62
2021/01/05 06:03:07;;;;;;;25.77;14.23;;;1.40;99.90;;;2.41;100.00;100152.38;4750734;30;20254;-61
2021/01/05 06:05:37;;;;;;;26.80;14.47;;;1.50;99.90;;;2.33;100.00;100149.69;4751020;30;20279;-61
2021/01/05 06:08:07;;;;;;;27.93;13.77;;;1.40;99.90;;;2.21;100.00;100148.41;4750707;30;20254;-61
2021/01/05 06:10:35;;;;;;;26.40;14.23;;;1.40;99.90;;;2.20;100.00;100152.03;4750625;30;20193;-61
2021/01/05 06:13:04;;;;;;;27.57;13.83;;;1.40;99.90;;;2.29;100.00;100148.41;4753585;30;20667;-61
2021/01/05 06:15:34;;;;;;;26.80;13.87;;;1.40;99.90;;;2.41;100.00;100149.72;4753669;30;20252;-61
2021/01/05 06:18:03;;;;;;;25.77;14.47;;;1.40;99.90;;;2.36;100.00;100154.72;4753840;30;20236;-61
2021/01/05 06:20:30;;;;;;;23.20;13.40;;;1.50;99.90;;;2.34;100.00;100148.72;4753686;30;20275;-61
2021/01/05 06:22:57;;;;;;;23.33;13.13;;;1.40;99.90;;;2.39;100.00;100153.53;4753494;30;20259;-60
2021/01/05 06:25:25;;;;;;;23.03;12.97;;;1.40;99.90;;;2.28;100.00;100162.66;4753547;30;20238;-61
2021/01/05 06:27:53;;;;;;;28.67;13.87;;;1.40;99.90;;;2.31;100.00;100164.16;4753362;30;20441;-60
2021/01/05 06:30:21;;;;;;;25.77;13.33;;;1.40;99.90;;;2.30;100.00;100158.00;4753556;30;20303;-60
2021/01/05 06:32:50;;;;;;;27.30;13.77;;;1.40;99.90;;;2.25;100.00;100167.50;4753476;30;20295;-61
2021/01/05 06:35:22;;;;;;;25.57;13.30;;;1.40;99.90;;;2.37;100.00;100166.97;4753520;30;20239;-60
2021/01/05 06:37:52;;;;;;;21.03;12.30;;;1.40;99.90;;;2.13;100.00;100159.00;4753488;30;20280;-60
2021/01/05 06:40:23;;;;;;;23.00;13.43;;;1.40;99.90;;;2.24;100.00;100158.69;4753209;30;20311;-60
2021/01/05 06:42:50;;;;;;;26.67;13.83;;;1.30;99.90;;;2.43;100.00;100171.66;4753204;30;20236;-61
2021/01/05 06:45:22;;;;;;;30.60;14.43;;;1.40;99.90;;;2.45;100.00;100160.84;4752915;30;20270;-61
2021/01/05 06:47:52;;;;;;;25.67;14.60;;;1.50;99.90;;;2.26;100.00;100162.03;4753112;30;20560;-61
2021/01/05 06:50:22;;;;;;;29.73;15.07;;;1.40;99.90;;;2.27;100.00;100176.97;4752749;30;20294;-60
2021/01/05 06:52:50;;;;;;;29.13;14.73;;;1.40;99.90;;;2.23;100.00;100175.63;4752760;30;20208;-64
2021/01/05 06:55:18;;;;;;;28.20;15.00;;;1.40;99.90;;;2.31;100.00;100182.78;4752829;30;20216;-64
2021/01/05 06:57:46;;;;;;;32.37;15.80;;;1.40;99.90;;;2.55;100.00;100179.28;4745214;30;20658;-63
2021/01/05 07:00:18;;;;;;;28.47;14.83;;;1.50;99.90;;;2.28;100.00;100181.25;4734903;30;20317;-64
2021/01/05 07:02:46;;;;;;;31.07;15.33;;;1.50;99.90;;;2.27;100.00;100179.63;4735030;30;20228;-64
2021/01/05 07:05:16;;;;;;;30.87;15.77;;;1.40;99.90;;;2.29;100.00;100192.72;4735163;30;20220;-65
2021/01/05 07:07:44;;;;;;;33.33;16.57;;;1.40;99.90;;;2.19;100.00;100195.56;4735558;30;20243;-63
2021/01/05 07:10:14;;;;;;;31.53;15.33;;;1.40;99.90;;;2.44;100.00;100199.88;4734802;30;20217;-64
2021/01/05 07:12:41;;;;;;;31.63;16.20;;;1.40;99.90;;;2.34;100.00;100190.41;4748194;30;20216;-65
2021/01/05 07:15:12;;;;;;;33.17;16.70;;;1.40;99.90;;;2.27;100.00;100197.38;4737961;30;20680;-63
2021/01/05 07:17:40;;;;;;;37.23;15.67;;;1.40;99.90;;;2.35;100.00;100190.22;4735017;30;20189;-63
2021/01/05 07:20:11;;;;;;;32.27;16.60;;;1.40;99.90;;;2.36;100.00;100191.91;4734895;30;20240;-63
2021/01/05 07:22:39;;;;;;;32.43;15.97;;;1.40;99.90;;;2.25;100.00;100186.09;4735150;30;20313;-64
2021/01/05 07:25:12;;;;;;;31.30;16.33;;;1.40;99.90;;;2.33;100.00;100188.75;4734334;30;20684;-62
2021/01/05 07:27:39;;;;;;;33.20;16.80;;;1.40;99.90;;;2.23;100.00;100199.53;4734521;30;20225;-62
2021/01/05 07:30:09;;;;;;;36.40;17.00;;;1.40;99.90;;;2.25;100.00;100202.84;4734458;30;20256;-62
2021/01/05 07:32:37;;;;;;;30.50;16.73;;;1.40;99.90;;;2.26;100.00;100207.19;4734279;30;20255;-61
2021/01/05 07:35:06;;;;;;;31.10;15.67;;;1.40;99.90;;;2.19;100.00;100205.34;4734382;30;20307;-61
2021/01/05 07:37:41;;;;;;;28.73;15.63;;;1.40;99.90;;;2.07;100.00;100204.84;4734386;30;20314;-62
2021/01/05 07:40:13;;;;;;;35.90;16.70;;;1.30;99.90;;;2.07;100.00;100210.16;4734348;30;20244;-61
2021/01/05 07:42:41;;;;;;;31.83;16.33;;;1.30;99.90;;;2.27;100.00;100206.19;4734270;30;20195;-62
2021/01/05 07:45:17;;;;;;;34.10;17.20;;;1.40;99.90;;;2.35;100.00;100208.03;4734246;30;20240;-62
2021/01/05 07:47:45;;;;;;;30.30;16.33;;;1.40;99.90;;;2.21;100.00;100214.00;4734492;30;20236;-62
2021/01/05 07:50:20;;;;;;;30.17;15.60;;;1.30;99.90;;;2.47;100.00;100210.16;4732017;30;20692;-60
2021/01/05 07:52:49;;;;;;;30.33;16.30;;;1.40;99.90;;;2.38;100.00;100208.50;4734569;30;20287;-60
2021/01/05 07:55:20;;;;;;;31.83;15.73;;;1.40;99.90;;;2.33;100.00;100212.69;4748915;30;20606;-59
2021/01/05 07:57:47;;;;;;;30.83;16.37;;;1.40;99.90;;;2.39;100.00;100209.34;4748086;30;20286;-61
2021/01/05 08:00:18;;;;;;;30.87;16.20;;;1.50;99.90;;;2.31;100.00;100212.00;4748679;30;20232;-60
2021/01/05 08:02:46;;;;;;;28.83;16.33;;;1.50;99.90;;;2.16;100.00;100205.69;4748973;30;20233;-60
2021/01/05 08:05:16;;;;;;;31.30;16.13;;;1.50;99.90;;;2.21;100.00;100203.38;4748589;30;20315;-61
2021/01/05 08:07:44;;;;;;;31.67;15.97;;;1.40;99.90;;;2.48;100.00;100203.03;4748819;30;20303;-60
2021/01/05 08:10:21;;;;;;;31.63;16.37;;;1.50;99.90;;;2.64;100.00;100204.84;4748113;30;20758;-61
2021/01/05 08:12:49;;;;;;;32.10;15.57;;;1.60;99.90;;;2.47;100.00;100207.50;4748122;30;20231;-61
2021/01/05 08:15:20;;;;;;;31.63;15.77;;;1.60;99.90;;;2.43;100.00;100216.00;4748210;30;20211;-61
2021/01/05 08:17:48;;;;;;;29.33;15.40;;;1.60;99.90;;;2.45;100.00;100206.84;4726954;30;20707;-61
2021/01/05 08:20:18;;;;;;;34.03;15.97;;;1.60;99.90;;;2.64;100.00;100218.97;4747577;30;20323;-62
2021/01/05 08:22:46;;;;;;;29.03;15.43;;;1.60;99.90;;;2.62;100.00;100209.50;4748272;30;20200;-61
2021/01/05 08:25:16;;;;;;;30.40;15.17;;;1.60;99.90;;;2.63;100.00;100214.66;4747730;30;20315;-60
2021/01/05 08:27:47;;;;;;;27.17;14.80;;;1.70;99.90;;;2.48;100.00;100211.84;4729000;30;20862;-62
2021/01/05 08:30:19;;;;;;;31.83;16.17;;;1.60;99.90;;;2.44;100.00;100210.50;4712762;30;20191;-62
2021/01/05 08:32:47;;;;;;;30.70;16.63;;;1.60;99.90;;;2.37;100.00;100216.66;4712941;30;20244;-63
2021/01/05 08:35:18;;;;;;;32.03;16.90;;;1.60;99.90;;;2.23;100.00;100218.13;4728217;30;20224;-61
2021/01/05 08:37:45;;;;;;;34.67;16.70;;;1.50;99.90;;;2.53;100.00;100216.66;4748172;30;20617;-62
2021/01/05 08:40:17;;;;;;;30.40;15.30;;;1.50;99.90;;;2.53;100.00;100210.50;4747866;30;20327;-62
2021/01/05 08:42:45;;;;;;;31.00;16.53;;;1.60;99.90;;;2.61;100.00;100207.81;4747469;30;20254;-63
2021/01/05 08:45:14;;;;;;;28.20;15.50;;;1.60;99.90;;;2.61;100.00;100218.47;4747627;30;20265;-63
2021/01/05 08:47:41;;;;;;;28.00;14.60;;;1.60;99.90;;;2.57;100.00;100222.47;4747918;30;20295;-61
2021/01/05 08:50:17;;;;;;;30.93;16.33;;;1.60;99.90;;;2.21;100.00;100232.59;4747296;30;20345;-63
2021/01/05 08:52:45;;;;;;;29.77;15.23;;;1.50;99.90;;;2.57;100.00;100220.66;4747820;30;20736;-61
2021/01/05 08:55:13;;;;;;;32.37;16.33;;;1.60;99.90;;;2.36;100.00;100222.97;4747308;30;20212;-62
2021/01/05 08:57:41;;;;;;;27.47;14.90;;;1.50;99.90;;;2.45;100.00;100222.78;4747280;30;20208;-64
2021/01/05 09:00:13;;;;;;;31.43;16.47;;;1.50;99.90;;;2.48;100.00;100224.31;4747775;30;20264;-62
2021/01/05 09:02:40;;;;;;;28.83;16.30;;;1.60;99.90;;;2.29;100.00;100232.59;4747475;30;20250;-62
2021/01/05 09:05:10;;;;;;;27.97;15.17;;;1.50;99.90;;;2.39;100.00;100233.25;4747756;30;20664;-63
2021/01/05 09:07:37;;;;;;;31.30;16.10;;;1.40;99.90;;;2.36;100.00;100226.47;4747358;30;20698;-61
2021/01/05 09:10:08;;;;;;;28.23;15.57;;;1.50;99.90;;;2.25;100.00;100228.63;4747268;30;20243;-64
2021/01/05 09:12:36;;;;;;;31.75;17.85;;;1.40;99.90;;;2.42;100.00;100231.09;4749017;30;21047;-66
2021/01/05 09:15:06;;;;;;;32.73;16.93;;;1.50;99.90;;;2.53;100.00;100223.78;4747668;30;20216;-63
2021/01/05 09:17:33;;;;;;;30.90;15.57;;;1.50;99.90;;;2.69;100.00;100218.47;4747622;30;20262;-64
2021/01/05 09:20:01;;;;;;;30.17;15.80;;;1.60;99.90;;;2.53;100.00;100221.13;4747273;30;20235;-63
2021/01/05 09:22:28;;;;;;;29.83;16.53;;;1.60;99.90;;;2.58;100.00;100227.63;4747460;30;20307;-65
2021/01/05 09:24:55;;;;;;;31.90;15.87;;;1.60;99.90;;;2.59;100.00;100223.13;4747452;30;20258;-64
2021/01/05 09:27:23;;;;;;;28.87;15.53;;;1.60;99.90;;;2.55;100.00;100224.47;4746984;30;20295;-66
2021/01/05 09:29:50;;;;;;;26.53;14.40;;;1.70;99.90;;;2.74;100.00;100224.94;4747719;30;20302;-66
2021/01/05 09:32:18;;;;;;;29.03;15.13;;;1.70;99.90;;;2.65;100.00;100219.81;4747351;30;20216;-66
2021/01/05 09:34:45;;;;;;;26.27;15.50;;;1.70;99.90;;;2.63;100.00;100217.31;4747174;30;20212;-66
2021/01/05 09:37:13;;;;;;;28.90;13.97;;;1.70;99.90;;;2.42;100.00;100228.44;4747386;30;20730;-63
2021/01/05 09:39:40;;;;;;;27.30;14.67;;;1.60;99.90;;;2.67;100.00;100229.28;4746798;30;20323;-60
2021/01/05 09:42:07;;;;;;;28.90;14.73;;;1.70;99.90;;;2.50;100.00;100230.28;4747383;30;20253;-66
2021/01/05 09:44:34;;;;;;;29.23;15.13;;;1.70;99.90;;;2.62;100.00;100225.47;4749930;30;20687;-65
2021/01/05 09:47:02;;;;;;;26.40;14.87;;;1.70;99.90;;;2.69;100.00;100221.13;4752540;30;20650;-66
2021/01/05 09:49:31;;;;;;;25.10;14.53;;;1.70;99.90;;;2.79;100.00;100224.44;4750808;30;20240;-66
2021/01/05 09:52:00;;;;;;;25.47;14.53;;;1.70;99.90;;;2.64;100.00;100226.13;4750866;30;20208;-65
2021/01/05 09:54:28;;;;;;;24.57;13.43;;;1.70;99.90;;;2.41;100.00;100223.31;4750599;30;20691;-63
2021/01/05 09:56:58;;;;;;;23.47;13.73;;;1.70;99.90;;;2.53;100.00;100229.94;4750358;30;20322;-64
2021/01/05 09:59:27;;;;;;;26.70;13.30;;;1.70;99.90;;;2.71;100.00;100217.28;4750596;30;20323;-64
2021/01/05 10:01:55;;;;;;;23.10;13.60;;;1.70;99.90;;;2.82;100.00;100218.78;4750614;30;20303;-63
2021/01/05 10:04:23;;;;;;;23.93;13.37;;;1.80;99.90;;;2.62;100.00;100214.81;4750692;30;20236;-64
2021/01/05 10:06:51;;;;;;;22.60;13.20;;;1.70;99.90;;;2.91;100.00;100209.81;4750758;30;20644;-63
2021/01/05 10:09:19;;;;;;;23.43;13.07;;;1.80;99.90;;;2.76;100.00;100211.50;4750639;30;20212;-64
2021/01/05 10:11:47;;;;;;;19.83;11.60;;;1.80;99.90;;;2.78;100.00;100210.31;4750058;30;20300;-66
2021/01/05 10:14:19;;;;;;;20.87;13.13;;;1.80;99.90;;;2.86;100.00;100201.50;4750209;30;20216;-64
2021/01/05 10:16:53;;;;;;;20.27;12.17;;;1.90;99.90;;;2.63;100.00;100200.53;4750004;30;20570;-61
2021/01/05 10:19:21;;;;;;;20.07;13.10;;;1.90;99.90;;;2.80;100.00;100203.00;4750601;30;20311;-61
2021/01/05 10:21:48;;;;;;;21.63;12.83;;;1.80;99.90;;;2.82;100.00;100201.00;4749706;30;20315;-61
2021/01/05 10:24:17;;;;;;;22.87;13.63;;;1.90;99.90;;;2.99;100.00;100199.97;4750238;30;20235;-61
2021/01/05 10:26:51;;;;;;;20.27;12.43;;;1.90;99.90;;;2.86;100.00;100199.66;4749529;30;20746;-63
2021/01/05 10:29:19;;;;;;;19.87;12.10;;;2.00;99.90;;;2.93;100.00;100197.97;4749847;30;20664;-63
2021/01/05 10:31:48;;;;;;;19.33;12.40;;;2.00;99.90;;;3.13;100.00;100198.44;4750110;30;20291;-65